sensor_id;sensor_type;location;lat;lon;timestamp;temperature;humidity
33067;DHT22;19428;49.024;8.366;2023-04-03T00:01:01;5.40;92.80
33067;DHT22;19428;49.024;8.366;2023-04-03T00:03:27;5.40;93.00
33067;DHT22;19428;49.024;8.366;2023-04-03T00:05:52;5.40;92.90
33067;DHT22;19428;49.024;8.366;2023-04-03T00:08:18;5.40;92.60
33067;DHT22;19428;49.024;8.366;2023-04-03T00:10:44;5.40;92.90
33067;DHT22;19428;49.024;8.366;2023-04-03T00:13:09;5.40;93.00
33067;DHT22;19428;49.024;8.366;2023-04-03T00:15:36;5.40;93.10
33067;DHT22;19428;49.024;8.366;2023-04-03T00:18:03;5.40;92.70
33067;DHT22;19428;49.024;8.366;2023-04-03T00:20:28;5.40;92.00
33067;DHT22;19428;49.024;8.366;2023-04-03T00:22:54;5.40;92.80
33067;DHT22;19428;49.024;8.366;2023-04-03T00:25:20;5.40;93.00
33067;DHT22;19428;49.024;8.366;2023-04-03T00:27:46;5.40;92.50
33067;DHT22;19428;49.024;8.366;2023-04-03T00:30:15;5.40;93.40
33067;DHT22;19428;49.024;8.366;2023-04-03T00:32:40;5.40;93.10
33067;DHT22;19428;49.024;8.366;2023-04-03T00:35:06;5.30;93.30
33067;DHT22;19428;49.024;8.366;2023-04-03T00:37:32;5.40;94.10
33067;DHT22;19428;49.024;8.366;2023-04-03T00:39:58;5.40;94.30
33067;DHT22;19428;49.024;8.366;2023-04-03T00:42:24;5.30;94.30
33067;DHT22;19428;49.024;8.366;2023-04-03T00:47:18;5.30;93.40
33067;DHT22;19428;49.024;8.366;2023-04-03T00:49:44;5.30;93.70
33067;DHT22;19428;49.024;8.366;2023-04-03T00:52:14;5.30;93.30
33067;DHT22;19428;49.024;8.366;2023-04-03T00:54:42;5.30;92.60
33067;DHT22;19428;49.024;8.366;2023-04-03T00:57:10;5.40;92.70
33067;DHT22;19428;49.024;8.366;2023-04-03T00:59:41;5.30;91.90
33067;DHT22;19428;49.024;8.366;2023-04-03T01:02:08;5.30;92.00
33067;DHT22;19428;49.024;8.366;2023-04-03T01:04:36;5.30;92.40
33067;DHT22;19428;49.024;8.366;2023-04-03T01:07:12;5.30;92.70
33067;DHT22;19428;49.024;8.366;2023-04-03T01:09:38;5.30;91.60
33067;DHT22;19428;49.024;8.366;2023-04-03T01:12:19;5.30;91.80
33067;DHT22;19428;49.024;8.366;2023-04-03T01:14:48;5.30;91.40
33067;DHT22;19428;49.024;8.366;2023-04-03T01:17:33;5.30;91.30
33067;DHT22;19428;49.024;8.366;2023-04-03T01:25:15;5.20;91.40
33067;DHT22;19428;49.024;8.366;2023-04-03T01:27:41;5.20;92.10
33067;DHT22;19428;49.024;8.366;2023-04-03T01:30:07;5.20;92.60
33067;DHT22;19428;49.024;8.366;2023-04-03T01:32:33;5.20;92.70
33067;DHT22;19428;49.024;8.366;2023-04-03T01:34:58;5.10;92.00
33067;DHT22;19428;49.024;8.366;2023-04-03T01:37:24;5.00;92.70
33067;DHT22;19428;49.024;8.366;2023-04-03T01:39:50;5.10;92.50
33067;DHT22;19428;49.024;8.366;2023-04-03T01:42:15;5.00;92.20
33067;DHT22;19428;49.024;8.366;2023-04-03T01:44:41;4.90;92.10
33067;DHT22;19428;49.024;8.366;2023-04-03T01:47:07;4.90;92.50
33067;DHT22;19428;49.024;8.366;2023-04-03T01:49:33;4.90;92.40
33067;DHT22;19428;49.024;8.366;2023-04-03T01:51:58;4.90;93.10
33067;DHT22;19428;49.024;8.366;2023-04-03T01:54:24;4.80;93.60
33067;DHT22;19428;49.024;8.366;2023-04-03T01:56:50;4.80;93.70
33067;DHT22;19428;49.024;8.366;2023-04-03T01:59:15;4.70;94.00
33067;DHT22;19428;49.024;8.366;2023-04-03T02:01:43;4.70;94.30
33067;DHT22;19428;49.024;8.366;2023-04-03T02:04:11;4.70;94.30
33067;DHT22;19428;49.024;8.366;2023-04-03T02:06:36;4.60;94.90
33067;DHT22;19428;49.024;8.366;2023-04-03T02:09:04;4.60;94.80
33067;DHT22;19428;49.024;8.366;2023-04-03T02:11:30;4.60;95.00
33067;DHT22;19428;49.024;8.366;2023-04-03T02:13:55;4.60;95.30
33067;DHT22;19428;49.024;8.366;2023-04-03T02:16:21;4.50;94.80
33067;DHT22;19428;49.024;8.366;2023-04-03T02:18:46;4.50;95.10
33067;DHT22;19428;49.024;8.366;2023-04-03T02:21:12;4.50;95.00
33067;DHT22;19428;49.024;8.366;2023-04-03T02:23:38;4.50;94.90
33067;DHT22;19428;49.024;8.366;2023-04-03T02:26:05;4.40;95.00
33067;DHT22;19428;49.024;8.366;2023-04-03T02:28:32;4.40;95.30
33067;DHT22;19428;49.024;8.366;2023-04-03T02:30:57;4.40;95.00
33067;DHT22;19428;49.024;8.366;2023-04-03T02:33:23;4.40;95.60
33067;DHT22;19428;49.024;8.366;2023-04-03T02:35:53;4.40;95.90
33067;DHT22;19428;49.024;8.366;2023-04-03T02:38:18;4.30;95.50
33067;DHT22;19428;49.024;8.366;2023-04-03T02:40:44;4.30;96.30
33067;DHT22;19428;49.024;8.366;2023-04-03T02:43:10;4.20;95.80
33067;DHT22;19428;49.024;8.366;2023-04-03T02:45:35;4.10;96.10
33067;DHT22;19428;49.024;8.366;2023-04-03T02:48:01;4.20;96.40
33067;DHT22;19428;49.024;8.366;2023-04-03T02:50:26;4.10;96.60
33067;DHT22;19428;49.024;8.366;2023-04-03T02:52:52;4.10;96.20
33067;DHT22;19428;49.024;8.366;2023-04-03T02:55:18;4.00;96.50
33067;DHT22;19428;49.024;8.366;2023-04-03T02:57:43;4.00;96.50
33067;DHT22;19428;49.024;8.366;2023-04-03T03:00:09;3.90;96.90
33067;DHT22;19428;49.024;8.366;2023-04-03T03:02:35;3.90;96.70
33067;DHT22;19428;49.024;8.366;2023-04-03T03:05:01;3.90;96.90
33067;DHT22;19428;49.024;8.366;2023-04-03T03:07:26;3.80;97.20
33067;DHT22;19428;49.024;8.366;2023-04-03T03:09:52;3.80;97.50
33067;DHT22;19428;49.024;8.366;2023-04-03T03:12:20;3.80;97.60
33067;DHT22;19428;49.024;8.366;2023-04-03T03:14:47;3.70;98.10
33067;DHT22;19428;49.024;8.366;2023-04-03T03:17:13;3.80;98.00
33067;DHT22;19428;49.024;8.366;2023-04-03T03:19:38;3.70;97.90
33067;DHT22;19428;49.024;8.366;2023-04-03T03:22:04;3.70;98.20
33067;DHT22;19428;49.024;8.366;2023-04-03T03:24:30;3.70;98.10
33067;DHT22;19428;49.024;8.366;2023-04-03T03:26:56;3.60;98.30
33067;DHT22;19428;49.024;8.366;2023-04-03T03:29:21;3.70;98.70
33067;DHT22;19428;49.024;8.366;2023-04-03T03:31:47;3.70;98.80
33067;DHT22;19428;49.024;8.366;2023-04-03T03:34:13;3.60;98.80
33067;DHT22;19428;49.024;8.366;2023-04-03T03:36:39;3.70;99.20
33067;DHT22;19428;49.024;8.366;2023-04-03T03:39:04;3.60;99.20
33067;DHT22;19428;49.024;8.366;2023-04-03T03:41:30;3.60;99.20
33067;DHT22;19428;49.024;8.366;2023-04-03T03:43:56;3.60;99.10
33067;DHT22;19428;49.024;8.366;2023-04-03T03:46:22;3.60;99.20
33067;DHT22;19428;49.024;8.366;2023-04-03T03:48:47;3.60;99.10
33067;DHT22;19428;49.024;8.366;2023-04-03T03:51:13;3.60;99.40
33067;DHT22;19428;49.024;8.366;2023-04-03T03:53:39;3.60;99.60
33067;DHT22;19428;49.024;8.366;2023-04-03T03:56:05;3.60;99.80
33067;DHT22;19428;49.024;8.366;2023-04-03T03:58:31;3.60;99.80
33067;DHT22;19428;49.024;8.366;2023-04-03T04:01:00;3.60;99.90
33067;DHT22;19428;49.024;8.366;2023-04-03T04:03:26;3.60;99.90
33067;DHT22;19428;49.024;8.366;2023-04-03T04:05:52;3.60;99.90
33067;DHT22;19428;49.024;8.366;2023-04-03T04:08:18;3.60;99.90
33067;DHT22;19428;49.024;8.366;2023-04-03T04:10:43;3.60;99.90
33067;DHT22;19428;49.024;8.366;2023-04-03T04:13:09;3.70;99.90
33067;DHT22;19428;49.024;8.366;2023-04-03T04:15:34;3.60;99.90
33067;DHT22;19428;49.024;8.366;2023-04-03T04:18:01;3.60;99.90
33067;DHT22;19428;49.024;8.366;2023-04-03T04:20:27;3.70;99.90
33067;DHT22;19428;49.024;8.366;2023-04-03T04:22:53;3.70;99.90
33067;DHT22;19428;49.024;8.366;2023-04-03T04:25:18;3.70;99.90
33067;DHT22;19428;49.024;8.366;2023-04-03T04:27:44;3.70;99.90
33067;DHT22;19428;49.024;8.366;2023-04-03T04:30:10;3.70;99.90
33067;DHT22;19428;49.024;8.366;2023-04-03T04:32:36;3.70;99.90
33067;DHT22;19428;49.024;8.366;2023-04-03T04:35:02;3.70;99.90
33067;DHT22;19428;49.024;8.366;2023-04-03T04:37:29;3.70;99.90
33067;DHT22;19428;49.024;8.366;2023-04-03T04:39:55;3.70;99.90
33067;DHT22;19428;49.024;8.366;2023-04-03T04:42:20;3.70;99.90
33067;DHT22;19428;49.024;8.366;2023-04-03T04:44:46;3.70;99.90
33067;DHT22;19428;49.024;8.366;2023-04-03T04:47:12;3.80;99.90
33067;DHT22;19428;49.024;8.366;2023-04-03T04:49:37;3.70;99.90
33067;DHT22;19428;49.024;8.366;2023-04-03T04:52:03;3.70;99.90
33067;DHT22;19428;49.024;8.366;2023-04-03T04:54:29;3.70;99.90
33067;DHT22;19428;49.024;8.366;2023-04-03T04:56:54;3.60;99.90
33067;DHT22;19428;49.024;8.366;2023-04-03T04:59:20;3.60;99.90
33067;DHT22;19428;49.024;8.366;2023-04-03T05:01:46;3.60;99.90
33067;DHT22;19428;49.024;8.366;2023-04-03T05:04:11;3.60;99.90
33067;DHT22;19428;49.024;8.366;2023-04-03T05:06:38;3.60;99.90
33067;DHT22;19428;49.024;8.366;2023-04-03T05:09:03;3.50;99.90
33067;DHT22;19428;49.024;8.366;2023-04-03T05:11:29;3.50;99.90
33067;DHT22;19428;49.024;8.366;2023-04-03T05:13:55;3.50;99.90
33067;DHT22;19428;49.024;8.366;2023-04-03T05:16:21;3.50;99.90
33067;DHT22;19428;49.024;8.366;2023-04-03T05:18:47;3.50;99.90
33067;DHT22;19428;49.024;8.366;2023-04-03T05:21:12;3.40;99.90
33067;DHT22;19428;49.024;8.366;2023-04-03T05:23:39;3.40;99.90
33067;DHT22;19428;49.024;8.366;2023-04-03T05:26:05;3.40;99.60
33067;DHT22;19428;49.024;8.366;2023-04-03T05:28:31;3.30;99.40
33067;DHT22;19428;49.024;8.366;2023-04-03T05:30:57;3.30;99.40
33067;DHT22;19428;49.024;8.366;2023-04-03T05:33:24;3.40;98.90
33067;DHT22;19428;49.024;8.366;2023-04-03T05:35:49;3.40;98.90
33067;DHT22;19428;49.024;8.366;2023-04-03T05:38:15;3.40;98.70
33067;DHT22;19428;49.024;8.366;2023-04-03T05:40:40;3.30;98.90
33067;DHT22;19428;49.024;8.366;2023-04-03T05:43:06;3.30;98.50
33067;DHT22;19428;49.024;8.366;2023-04-03T05:45:32;3.30;99.00
33067;DHT22;19428;49.024;8.366;2023-04-03T05:47:59;3.30;99.10
33067;DHT22;19428;49.024;8.366;2023-04-03T05:50:25;3.30;99.40
33067;DHT22;19428;49.024;8.366;2023-04-03T05:52:52;3.20;99.20
33067;DHT22;19428;49.024;8.366;2023-04-03T05:55:19;3.20;99.50
33067;DHT22;19428;49.024;8.366;2023-04-03T05:57:45;3.30;99.30
33067;DHT22;19428;49.024;8.366;2023-04-03T06:00:13;3.30;99.40
33067;DHT22;19428;49.024;8.366;2023-04-03T06:02:41;3.30;99.20
33067;DHT22;19428;49.024;8.366;2023-04-03T06:05:08;3.30;99.10
33067;DHT22;19428;49.024;8.366;2023-04-03T06:07:34;3.30;99.10
33067;DHT22;19428;49.024;8.366;2023-04-03T06:10:00;3.30;98.60
33067;DHT22;19428;49.024;8.366;2023-04-03T06:12:26;3.40;99.00
33067;DHT22;19428;49.024;8.366;2023-04-03T06:14:54;3.30;99.00
33067;DHT22;19428;49.024;8.366;2023-04-03T06:17:19;3.40;99.10
33067;DHT22;19428;49.024;8.366;2023-04-03T06:19:45;3.50;99.20
33067;DHT22;19428;49.024;8.366;2023-04-03T06:22:11;3.50;98.70
33067;DHT22;19428;49.024;8.366;2023-04-03T06:24:37;3.60;98.40
33067;DHT22;19428;49.024;8.366;2023-04-03T06:27:03;3.60;98.10
33067;DHT22;19428;49.024;8.366;2023-04-03T06:29:29;3.60;98.40
33067;DHT22;19428;49.024;8.366;2023-04-03T06:31:55;3.70;98.80
33067;DHT22;19428;49.024;8.366;2023-04-03T06:34:21;3.80;97.50
33067;DHT22;19428;49.024;8.366;2023-04-03T06:36:46;3.90;98.20
33067;DHT22;19428;49.024;8.366;2023-04-03T06:39:17;3.90;97.20
33067;DHT22;19428;49.024;8.366;2023-04-03T06:41:43;3.80;97.30
33067;DHT22;19428;49.024;8.366;2023-04-03T06:44:09;3.90;97.50
33067;DHT22;19428;49.024;8.366;2023-04-03T06:46:37;3.90;97.30
33067;DHT22;19428;49.024;8.366;2023-04-03T06:49:03;4.00;97.20
33067;DHT22;19428;49.024;8.366;2023-04-03T06:51:29;4.00;96.90
33067;DHT22;19428;49.024;8.366;2023-04-03T06:53:57;4.00;96.40
33067;DHT22;19428;49.024;8.366;2023-04-03T06:56:24;4.00;96.90
33067;DHT22;19428;49.024;8.366;2023-04-03T06:58:52;4.20;96.70
33067;DHT22;19428;49.024;8.366;2023-04-03T07:01:20;4.30;96.40
33067;DHT22;19428;49.024;8.366;2023-04-03T07:03:47;4.30;95.80
33067;DHT22;19428;49.024;8.366;2023-04-03T07:06:15;4.40;95.70
33067;DHT22;19428;49.024;8.366;2023-04-03T07:08:42;4.40;95.80
33067;DHT22;19428;49.024;8.366;2023-04-03T07:11:09;4.60;95.30
33067;DHT22;19428;49.024;8.366;2023-04-03T07:13:35;4.40;95.50
33067;DHT22;19428;49.024;8.366;2023-04-03T07:16:01;4.40;95.50
33067;DHT22;19428;49.024;8.366;2023-04-03T07:18:29;4.50;95.70
33067;DHT22;19428;49.024;8.366;2023-04-03T07:20:55;4.70;95.60
33067;DHT22;19428;49.024;8.366;2023-04-03T07:23:21;4.70;95.50
33067;DHT22;19428;49.024;8.366;2023-04-03T07:25:48;4.70;95.70
33067;DHT22;19428;49.024;8.366;2023-04-03T07:28:15;4.60;96.00
33067;DHT22;19428;49.024;8.366;2023-04-03T07:30:54;4.80;96.40
33067;DHT22;19428;49.024;8.366;2023-04-03T07:33:24;4.90;96.60
33067;DHT22;19428;49.024;8.366;2023-04-03T07:35:50;5.00;95.70
33067;DHT22;19428;49.024;8.366;2023-04-03T07:38:15;5.10;96.10
33067;DHT22;19428;49.024;8.366;2023-04-03T07:40:46;5.30;96.70
33067;DHT22;19428;49.024;8.366;2023-04-03T07:43:12;5.20;95.90
33067;DHT22;19428;49.024;8.366;2023-04-03T07:45:37;5.20;96.00
33067;DHT22;19428;49.024;8.366;2023-04-03T07:48:03;5.40;96.50
33067;DHT22;19428;49.024;8.366;2023-04-03T07:50:29;5.40;95.00
33067;DHT22;19428;49.024;8.366;2023-04-03T07:52:56;5.40;94.80
33067;DHT22;19428;49.024;8.366;2023-04-03T07:55:24;5.40;94.90
33067;DHT22;19428;49.024;8.366;2023-04-03T07:57:50;5.60;94.60
33067;DHT22;19428;49.024;8.366;2023-04-03T08:00:17;5.70;94.00
33067;DHT22;19428;49.024;8.366;2023-04-03T08:02:44;5.60;94.00
33067;DHT22;19428;49.024;8.366;2023-04-03T08:05:16;5.60;93.80
33067;DHT22;19428;49.024;8.366;2023-04-03T08:07:42;5.80;94.30
33067;DHT22;19428;49.024;8.366;2023-04-03T08:10:08;6.00;94.20
33067;DHT22;19428;49.024;8.366;2023-04-03T08:37:52;6.80;88.40
33067;DHT22;19428;49.024;8.366;2023-04-03T08:40:36;7.10;87.20
33067;DHT22;19428;49.024;8.366;2023-04-03T08:43:30;7.20;84.40
33067;DHT22;19428;49.024;8.366;2023-04-03T08:46:14;7.00;81.40
33067;DHT22;19428;49.024;8.366;2023-04-03T08:48:43;7.00;84.30
33067;DHT22;19428;49.024;8.366;2023-04-03T08:51:16;7.20;82.00
33067;DHT22;19428;49.024;8.366;2023-04-03T08:53:51;7.10;81.10
33067;DHT22;19428;49.024;8.366;2023-04-03T08:56:20;7.30;80.70
33067;DHT22;19428;49.024;8.366;2023-04-03T08:58:52;7.20;78.30
33067;DHT22;19428;49.024;8.366;2023-04-03T09:01:29;7.10;78.40
33067;DHT22;19428;49.024;8.366;2023-04-03T09:04:01;7.20;77.10
33067;DHT22;19428;49.024;8.366;2023-04-03T09:06:30;7.30;78.20
33067;DHT22;19428;49.024;8.366;2023-04-03T09:09:17;7.20;76.80
33067;DHT22;19428;49.024;8.366;2023-04-03T09:12:06;7.10;78.20
33067;DHT22;19428;49.024;8.366;2023-04-03T09:14:46;6.90;77.30
33067;DHT22;19428;49.024;8.366;2023-04-03T09:20:21;7.10;76.30
33067;DHT22;19428;49.024;8.366;2023-04-03T09:22:50;7.50;79.90
33067;DHT22;19428;49.024;8.366;2023-04-03T09:27:46;7.30;71.10
33067;DHT22;19428;49.024;8.366;2023-04-03T09:30:23;7.40;70.70
33067;DHT22;19428;49.024;8.366;2023-04-03T09:32:51;7.50;72.50
33067;DHT22;19428;49.024;8.366;2023-04-03T09:37:45;7.50;67.60
33067;DHT22;19428;49.024;8.366;2023-04-03T09:42:59;7.70;66.50
33067;DHT22;19428;49.024;8.366;2023-04-03T09:45:32;7.80;65.70
33067;DHT22;19428;49.024;8.366;2023-04-03T09:48:15;7.80;63.00
33067;DHT22;19428;49.024;8.366;2023-04-03T09:53:36;7.90;61.10
33067;DHT22;19428;49.024;8.366;2023-04-03T09:56:10;8.00;60.50
33067;DHT22;19428;49.024;8.366;2023-04-03T09:58:49;8.00;60.60
33067;DHT22;19428;49.024;8.366;2023-04-03T10:01:33;7.90;56.40
33067;DHT22;19428;49.024;8.366;2023-04-03T10:06:33;7.90;53.80
33067;DHT22;19428;49.024;8.366;2023-04-03T10:09:03;8.00;54.40
33067;DHT22;19428;49.024;8.366;2023-04-03T10:11:31;8.20;56.10
33067;DHT22;19428;49.024;8.366;2023-04-03T10:14:01;8.50;55.30
33067;DHT22;19428;49.024;8.366;2023-04-03T10:19:45;8.60;53.00
33067;DHT22;19428;49.024;8.366;2023-04-03T10:25:12;7.80;52.20
33067;DHT22;19428;49.024;8.366;2023-04-03T10:30:19;8.00;48.00
33067;DHT22;19428;49.024;8.366;2023-04-03T10:33:01;8.10;48.30
33067;DHT22;19428;49.024;8.366;2023-04-03T10:35:58;7.90;45.80
33067;DHT22;19428;49.024;8.366;2023-04-03T10:41:25;8.00;49.00
33067;DHT22;19428;49.024;8.366;2023-04-03T10:44:14;8.10;48.40
33067;DHT22;19428;49.024;8.366;2023-04-03T10:46:49;8.20;49.30
33067;DHT22;19428;49.024;8.366;2023-04-03T10:49:31;8.40;46.30
33067;DHT22;19428;49.024;8.366;2023-04-03T10:52:09;8.30;44.80
33067;DHT22;19428;49.024;8.366;2023-04-03T10:54:41;8.10;45.10
33067;DHT22;19428;49.024;8.366;2023-04-03T10:57:10;8.30;45.30
33067;DHT22;19428;49.024;8.366;2023-04-03T10:59:45;8.00;43.50
33067;DHT22;19428;49.024;8.366;2023-04-03T11:02:14;8.00;43.60
33067;DHT22;19428;49.024;8.366;2023-04-03T11:04:43;8.30;43.70
33067;DHT22;19428;49.024;8.366;2023-04-03T11:07:20;8.20;41.30
33067;DHT22;19428;49.024;8.366;2023-04-03T11:09:52;8.50;44.00
33067;DHT22;19428;49.024;8.366;2023-04-03T11:15:02;8.60;39.60
33067;DHT22;19428;49.024;8.366;2023-04-03T11:17:33;8.70;40.80
33067;DHT22;19428;49.024;8.366;2023-04-03T11:20:31;8.50;38.40
33067;DHT22;19428;49.024;8.366;2023-04-03T11:23:21;9.00;40.20
33067;DHT22;19428;49.024;8.366;2023-04-03T11:25:51;8.60;38.20
33067;DHT22;19428;49.024;8.366;2023-04-03T11:28:18;8.30;38.00
33067;DHT22;19428;49.024;8.366;2023-04-03T11:30:46;8.50;39.70
33067;DHT22;19428;49.024;8.366;2023-04-03T11:33:31;8.40;38.20
33067;DHT22;19428;49.024;8.366;2023-04-03T11:36:27;8.40;36.60
33067;DHT22;19428;49.024;8.366;2023-04-03T11:38:56;8.80;37.60
33067;DHT22;19428;49.024;8.366;2023-04-03T11:41:30;8.60;37.10
33067;DHT22;19428;49.024;8.366;2023-04-03T11:46:56;8.40;38.60
33067;DHT22;19428;49.024;8.366;2023-04-03T11:49:57;8.30;38.70
33067;DHT22;19428;49.024;8.366;2023-04-03T12:29:22;7.90;36.80
33067;DHT22;19428;49.024;8.366;2023-04-03T12:32:32;8.20;37.40
33067;DHT22;19428;49.024;8.366;2023-04-03T12:35:18;8.20;38.70
33067;DHT22;19428;49.024;8.366;2023-04-03T12:48:53;8.60;36.70
33067;DHT22;19428;49.024;8.366;2023-04-03T12:53:46;8.80;37.70
33067;DHT22;19428;49.024;8.366;2023-04-03T12:56:21;8.40;34.40
33067;DHT22;19428;49.024;8.366;2023-04-03T12:58:47;8.80;37.10
33067;DHT22;19428;49.024;8.366;2023-04-03T13:01:16;8.60;33.40
33067;DHT22;19428;49.024;8.366;2023-04-03T13:03:48;8.40;32.60
33067;DHT22;19428;49.024;8.366;2023-04-03T13:06:21;8.60;33.90
33067;DHT22;19428;49.024;8.366;2023-04-03T13:08:56;8.80;33.30
33067;DHT22;19428;49.024;8.366;2023-04-03T14:04:54;8.50;31.00
33067;DHT22;19428;49.024;8.366;2023-04-03T14:07:23;8.60;33.50
33067;DHT22;19428;49.024;8.366;2023-04-03T14:09:49;8.70;34.50
33067;DHT22;19428;49.024;8.366;2023-04-03T14:12:19;8.50;32.30
33067;DHT22;19428;49.024;8.366;2023-04-03T14:14:46;8.00;34.50
33067;DHT22;19428;49.024;8.366;2023-04-03T14:17:18;7.90;35.70
33067;DHT22;19428;49.024;8.366;2023-04-03T14:19:47;8.00;36.20
33067;DHT22;19428;49.024;8.366;2023-04-03T14:22:22;8.00;36.80
33067;DHT22;19428;49.024;8.366;2023-04-03T14:24:49;8.00;35.90
33067;DHT22;19428;49.024;8.366;2023-04-03T14:27:25;8.20;36.00
33067;DHT22;19428;49.024;8.366;2023-04-03T14:29:52;8.70;35.50
33067;DHT22;19428;49.024;8.366;2023-04-03T14:32:22;8.50;35.00
33067;DHT22;19428;49.024;8.366;2023-04-03T14:34:49;8.50;36.40
33067;DHT22;19428;49.024;8.366;2023-04-03T14:37:18;8.30;35.30
33067;DHT22;19428;49.024;8.366;2023-04-03T14:39:51;8.20;34.90
33067;DHT22;19428;49.024;8.366;2023-04-03T14:42:22;8.20;33.90
33067;DHT22;19428;49.024;8.366;2023-04-03T14:44:51;8.10;33.70
33067;DHT22;19428;49.024;8.366;2023-04-03T14:47:20;8.20;34.20
33067;DHT22;19428;49.024;8.366;2023-04-03T14:49:46;8.30;33.00
33067;DHT22;19428;49.024;8.366;2023-04-03T14:52:25;8.40;33.60
33067;DHT22;19428;49.024;8.366;2023-04-03T14:54:53;8.30;32.30
33067;DHT22;19428;49.024;8.366;2023-04-03T14:57:23;8.40;33.50
33067;DHT22;19428;49.024;8.366;2023-04-03T14:59:49;8.50;32.20
33067;DHT22;19428;49.024;8.366;2023-04-03T15:02:33;8.60;32.30
33067;DHT22;19428;49.024;8.366;2023-04-03T15:05:00;8.40;31.20
33067;DHT22;19428;49.024;8.366;2023-04-03T15:07:34;8.30;30.40
33067;DHT22;19428;49.024;8.366;2023-04-03T15:10:13;8.40;32.10
33067;DHT22;19428;49.024;8.366;2023-04-03T15:12:40;8.30;30.50
33067;DHT22;19428;49.024;8.366;2023-04-03T15:15:08;8.10;29.80
33067;DHT22;19428;49.024;8.366;2023-04-03T15:17:41;8.40;29.70
33067;DHT22;19428;49.024;8.366;2023-04-03T15:20:23;8.90;27.90
33067;DHT22;19428;49.024;8.366;2023-04-03T15:22:55;9.10;28.80
33067;DHT22;19428;49.024;8.366;2023-04-03T15:25:58;8.90;28.10
33067;DHT22;19428;49.024;8.366;2023-04-03T15:34:45;9.60;25.70
33067;DHT22;19428;49.024;8.366;2023-04-03T15:37:42;9.70;26.50
33067;DHT22;19428;49.024;8.366;2023-04-03T15:43:17;11.00;22.90
33067;DHT22;19428;49.024;8.366;2023-04-03T15:45:48;9.70;23.00
33067;DHT22;19428;49.024;8.366;2023-04-03T15:48:22;8.90;25.40
33067;DHT22;19428;49.024;8.366;2023-04-03T15:50:52;8.90;25.60
33067;DHT22;19428;49.024;8.366;2023-04-03T15:53:30;8.50;25.30
33067;DHT22;19428;49.024;8.366;2023-04-03T15:56:06;8.40;26.60
33067;DHT22;19428;49.024;8.366;2023-04-03T15:58:40;8.30;24.80
33067;DHT22;19428;49.024;8.366;2023-04-03T16:01:06;8.50;24.30
33067;DHT22;19428;49.024;8.366;2023-04-03T16:03:31;8.80;25.00
33067;DHT22;19428;49.024;8.366;2023-04-03T16:05:57;8.90;24.70
33067;DHT22;19428;49.024;8.366;2023-04-03T16:08:23;8.70;23.30
33067;DHT22;19428;49.024;8.366;2023-04-03T16:10:50;8.70;23.40
33067;DHT22;19428;49.024;8.366;2023-04-03T16:13:15;8.70;23.50
33067;DHT22;19428;49.024;8.366;2023-04-03T16:15:44;8.70;24.70
33067;DHT22;19428;49.024;8.366;2023-04-03T16:18:10;8.60;23.10
33067;DHT22;19428;49.024;8.366;2023-04-03T16:20:36;8.50;22.80
33067;DHT22;19428;49.024;8.366;2023-04-03T16:23:01;8.50;24.20
33067;DHT22;19428;49.024;8.366;2023-04-03T16:25:27;8.40;21.90
33067;DHT22;19428;49.024;8.366;2023-04-03T16:27:56;8.30;22.30
33067;DHT22;19428;49.024;8.366;2023-04-03T16:30:22;8.30;23.30
33067;DHT22;19428;49.024;8.366;2023-04-03T16:32:47;8.20;22.50
33067;DHT22;19428;49.024;8.366;2023-04-03T16:35:16;8.40;24.30
33067;DHT22;19428;49.024;8.366;2023-04-03T16:37:42;8.40;23.20
33067;DHT22;19428;49.024;8.366;2023-04-03T16:40:09;8.40;22.80
33067;DHT22;19428;49.024;8.366;2023-04-03T16:42:35;8.40;23.10
33067;DHT22;19428;49.024;8.366;2023-04-03T16:45:00;8.40;22.70
33067;DHT22;19428;49.024;8.366;2023-04-03T16:47:29;8.20;21.60
33067;DHT22;19428;49.024;8.366;2023-04-03T16:49:55;8.10;20.80
33067;DHT22;19428;49.024;8.366;2023-04-03T16:52:20;8.00;21.80
33067;DHT22;19428;49.024;8.366;2023-04-03T16:54:46;8.10;22.00
33067;DHT22;19428;49.024;8.366;2023-04-03T16:57:12;8.00;20.70
33067;DHT22;19428;49.024;8.366;2023-04-03T16:59:37;8.00;21.60
33067;DHT22;19428;49.024;8.366;2023-04-03T17:02:03;8.00;21.60
33067;DHT22;19428;49.024;8.366;2023-04-03T17:04:29;8.00;22.80
33067;DHT22;19428;49.024;8.366;2023-04-03T17:06:55;7.90;22.30
33067;DHT22;19428;49.024;8.366;2023-04-03T17:09:21;8.00;21.10
33067;DHT22;19428;49.024;8.366;2023-04-03T17:11:48;7.80;21.70
33067;DHT22;19428;49.024;8.366;2023-04-03T17:14:14;7.90;23.40
33067;DHT22;19428;49.024;8.366;2023-04-03T17:16:40;7.80;23.40
33067;DHT22;19428;49.024;8.366;2023-04-03T17:19:08;7.80;23.50
33067;DHT22;19428;49.024;8.366;2023-04-03T17:21:34;7.80;23.10
33067;DHT22;19428;49.024;8.366;2023-04-03T17:24:03;7.70;24.50
33067;DHT22;19428;49.024;8.366;2023-04-03T17:26:35;7.60;24.00
33067;DHT22;19428;49.024;8.366;2023-04-03T17:29:02;7.60;23.40
33067;DHT22;19428;49.024;8.366;2023-04-03T17:31:28;7.60;23.50
33067;DHT22;19428;49.024;8.366;2023-04-03T17:33:54;7.50;22.90
33067;DHT22;19428;49.024;8.366;2023-04-03T17:36:27;7.50;23.40
33067;DHT22;19428;49.024;8.366;2023-04-03T17:38:53;7.40;24.20
33067;DHT22;19428;49.024;8.366;2023-04-03T17:41:20;7.30;23.50
33067;DHT22;19428;49.024;8.366;2023-04-03T17:43:49;7.30;23.60
33067;DHT22;19428;49.024;8.366;2023-04-03T17:46:23;7.30;23.90
33067;DHT22;19428;49.024;8.366;2023-04-03T17:48:49;7.20;24.30
33067;DHT22;19428;49.024;8.366;2023-04-03T17:51:18;7.30;23.20
33067;DHT22;19428;49.024;8.366;2023-04-03T17:53:46;7.20;23.90
33067;DHT22;19428;49.024;8.366;2023-04-03T17:56:23;7.20;23.30
33067;DHT22;19428;49.024;8.366;2023-04-03T17:58:52;7.10;23.80
33067;DHT22;19428;49.024;8.366;2023-04-03T18:01:20;6.90;24.00
33067;DHT22;19428;49.024;8.366;2023-04-03T18:03:47;7.00;23.90
33067;DHT22;19428;49.024;8.366;2023-04-03T18:06:16;7.00;24.20
33067;DHT22;19428;49.024;8.366;2023-04-03T18:08:48;7.00;24.60
33067;DHT22;19428;49.024;8.366;2023-04-03T18:11:15;6.80;24.60
33067;DHT22;19428;49.024;8.366;2023-04-03T18:13:41;6.80;24.20
33067;DHT22;19428;49.024;8.366;2023-04-03T18:16:09;6.60;25.10
33067;DHT22;19428;49.024;8.366;2023-04-03T18:18:35;6.60;24.10
33067;DHT22;19428;49.024;8.366;2023-04-03T18:21:02;6.70;24.50
33067;DHT22;19428;49.024;8.366;2023-04-03T18:23:30;6.60;25.40
33067;DHT22;19428;49.024;8.366;2023-04-03T18:25:56;6.50;24.70
33067;DHT22;19428;49.024;8.366;2023-04-03T18:28:23;6.40;24.70
33067;DHT22;19428;49.024;8.366;2023-04-03T18:30:49;6.50;24.60
33067;DHT22;19428;49.024;8.366;2023-04-03T18:33:14;6.40;25.00
33067;DHT22;19428;49.024;8.366;2023-04-03T18:35:40;6.40;24.20
33067;DHT22;19428;49.024;8.366;2023-04-03T18:38:06;6.30;24.20
33067;DHT22;19428;49.024;8.366;2023-04-03T18:40:32;6.30;24.20
33067;DHT22;19428;49.024;8.366;2023-04-03T18:43:00;6.30;24.30
33067;DHT22;19428;49.024;8.366;2023-04-03T18:45:26;6.10;24.60
33067;DHT22;19428;49.024;8.366;2023-04-03T18:47:52;6.10;24.60
33067;DHT22;19428;49.024;8.366;2023-04-03T18:50:18;6.20;23.50
33067;DHT22;19428;49.024;8.366;2023-04-03T18:52:44;6.20;24.60
33067;DHT22;19428;49.024;8.366;2023-04-03T18:55:17;6.10;23.80